Kanosh, Utah
Current Conditions -  °F | °C
As of 7:55 AM on Saturday 20 Dec 2014 (Local Time) from KDTA Reporting Station
Clear Clear  
Wind Chill: 22°   Ceiling: Unl
Heat Index: 28°   Visibility: 10mi
Dew Point: 26°   Wind: 6mph
Humidity: 89%   Direction: 180°S
Pressure: 30.12"   Gusts: NA
Location:  38.8°N, 112.44°W
Report Text: KDTA 201455Z AUTO 18005KT 10SM CLR M02/M04 A3012 RMK AO1 T10201036
Loading
Personal Weather Stations






























Interactive Weather Map New forecast layout! Learn more

10-Day Weather Forecast

Advertisements
Track Severe Weather on mobile